Time;durP1;ratioP1;P1;durP2;ratioP2;P2;SDS_P1;SDS_P2;PMS_P1;PMS_P2;Temp;Humidity;BMP_temperature;BMP_pressure;BME280_temperature;BME280_humidity;BME280_pressure;Samples;Min_cycle;Max_cycle;Signal;HPM_P1;HPM_P2
2023/12/30 11:34:59;;;;;;;21.95;19.27;;;9.90;99.90;;;;;;5111288;27;20297;-74
2023/12/30 11:38:07;;;;;;;13.38;9.13;;;9.60;99.90;;;;;;5072739;28;20755;-76
2023/12/30 11:40:34;;;;;;;11.63;3.80;;;9.50;99.90;;;;;;5073700;28;20167;-76
2023/12/30 11:43:35;;;;;;;6.35;3.03;;;9.50;99.90;;;;;;5072671;28;20681;-76
2023/12/30 11:46:11;;;;;;;8.02;2.88;;;9.40;99.90;;;;;;5073393;28;20189;-76
2023/12/30 11:48:49;;;;;;;12.15;3.00;;;9.40;99.90;;;;;;5075432;28;20586;-75
2023/12/30 11:51:25;;;;;;;8.75;2.63;;;9.30;99.90;;;;;;5075434;28;20165;-75
2023/12/30 11:54:05;;;;;;;6.90;2.63;;;9.30;99.90;;;;;;5074606;28;20226;-76
2023/12/30 11:56:40;;;;;;;6.75;3.25;;;9.30;99.90;;;;;;5073468;28;20197;-76
2023/12/30 11:59:08;;;;;;;6.15;2.55;;;9.40;99.90;;;;;;5075826;28;20223;-77
2023/12/30 12:01:35;;;;;;;10.57;3.80;;;9.30;99.90;;;;;;5072281;28;20222;-76
2023/12/30 12:04:06;;;;;;;9.57;4.38;;;9.40;99.90;;;;;;5074282;28;20173;-76
2023/12/30 12:06:59;;;;;;;10.90;5.00;;;9.50;99.90;;;;;;5074294;28;20197;-79
2023/12/30 12:09:42;;;;;;;7.78;3.20;;;9.60;99.90;;;;;;5072103;28;20581;-77
2023/12/30 12:12:11;;;;;;;9.38;3.50;;;9.70;99.90;;;;;;5073271;28;20693;-76
2023/12/30 12:14:55;;;;;;;9.73;4.10;;;9.80;99.90;;;;;;5072912;28;20188;-78
2023/12/30 12:17:21;;;;;;;7.45;3.50;;;9.90;99.90;;;;;;5073480;28;20196;-76
2023/12/30 12:19:47;;;;;;;7.60;3.60;;;9.90;99.90;;;;;;5072632;28;20225;-76
2023/12/30 12:22:15;;;;;;;8.40;5.00;;;9.90;99.90;;;;;;5072890;28;20173;-77
2023/12/30 12:24:42;;;;;;;13.15;5.78;;;10.00;99.90;;;;;;5079507;28;20177;-80
2023/12/30 12:27:07;;;;;;;8.60;4.80;;;10.20;99.90;;;;;;5091507;28;20199;-77
2023/12/30 12:29:49;;;;;;;6.47;3.22;;;10.20;99.90;;;;;;5072548;28;20173;-76
2023/12/30 12:32:15;;;;;;;7.57;3.40;;;10.30;99.90;;;;;;5076719;28;20161;-80
2023/12/30 12:35:28;;;;;;;7.38;3.08;;;10.20;99.90;;;;;;5069568;28;20193;-79
2023/12/30 12:37:53;;;;;;;7.47;2.20;;;10.20;99.90;;;;;;5060535;28;20187;-76
2023/12/30 12:40:19;;;;;;;6.60;3.17;;;10.20;99.90;;;;;;5058200;28;20256;-76
2023/12/30 12:42:44;;;;;;;5.82;1.92;;;10.20;99.90;;;;;;5058143;28;20181;-76
2023/12/30 12:45:10;;;;;;;7.05;2.42;;;10.20;99.90;;;;;;5076933;28;20180;-76
2023/12/30 12:47:35;;;;;;;7.07;2.30;;;10.30;99.90;;;;;;5076330;28;20193;-76
2023/12/30 12:50:01;;;;;;;5.68;2.33;;;10.30;99.90;;;;;;5064727;28;20190;-79
2023/12/30 12:52:27;;;;;;;5.50;2.22;;;10.20;99.90;;;;;;5064301;28;20209;-78
2023/12/30 12:54:52;;;;;;;6.45;2.20;;;10.30;99.90;;;;;;5064991;28;20181;-78
2023/12/30 13:27:33;;;;;;;5.95;2.00;;;10.40;99.90;;;;;;1133923;23;20627;-83
2023/12/30 13:29:58;;;;;;;5.55;1.90;;;10.50;99.90;;;;;;4937455;29;20315;-76
2023/12/30 13:32:27;;;;;;;7.45;2.15;;;10.50;99.90;;;;;;4936557;29;20263;-76
2023/12/30 13:34:55;;;;;;;7.55;1.80;;;10.50;99.90;;;;;;4921885;29;20178;-75
2023/12/30 13:37:22;;;;;;;5.00;1.80;;;10.50;99.90;;;;;;4920713;29;20671;-76
2023/12/30 13:39:47;;;;;;;5.63;2.10;;;10.50;99.90;;;;;;4938037;29;20175;-76
2023/12/30 13:42:14;;;;;;;3.97;1.88;;;10.50;99.90;;;;;;4921328;29;20193;-76
2023/12/30 13:44:44;;;;;;;4.10;1.65;;;10.50;99.90;;;;;;4937668;29;20665;-76
2023/12/30 13:52:37;;;;;;;2.78;1.63;;;10.30;99.90;;;;;;4937793;29;20281;-76
2023/12/30 13:55:06;;;;;;;7.45;2.40;;;10.30;99.90;;;;;;4920418;29;20210;-76
2023/12/30 13:57:32;;;;;;;7.38;2.35;;;10.20;99.90;;;;;;4920329;29;20682;-76
2023/12/30 13:59:58;;;;;;;6.45;1.90;;;10.20;99.90;;;;;;4921399;29;20308;-76
2023/12/30 14:02:25;;;;;;;6.90;2.22;;;10.10;99.90;;;;;;4937632;29;20174;-76
2023/12/30 14:04:56;;;;;;;8.52;2.22;;;10.00;99.90;;;;;;4937204;29;20248;-76
2023/12/30 14:07:29;;;;;;;5.00;2.17;;;9.90;99.90;;;;;;4920115;29;20667;-76
2023/12/30 14:09:59;;;;;;;8.95;2.55;;;9.70;99.90;;;;;;4921003;29;20189;-76
2023/12/30 14:12:24;;;;;;;3.88;1.90;;;9.50;99.90;;;;;;4920876;29;20178;-76
2023/12/30 14:14:55;;;;;;;5.82;2.13;;;9.40;99.90;;;;;;4920859;29;20233;-75
2023/12/30 14:17:23;;;;;;;6.00;1.65;;;9.30;99.90;;;;;;4920089;29;20214;-75
2023/12/30 14:19:49;;;;;;;6.93;2.10;;;9.20;99.90;;;;;;4937309;29;20234;-75
2023/12/30 14:22:15;;;;;;;4.90;1.83;;;9.20;99.90;;;;;;4919956;29;20175;-75
2023/12/30 14:24:43;;;;;;;5.00;2.00;;;9.10;99.90;;;;;;4920133;29;20190;-75
2023/12/30 14:27:08;;;;;;;10.23;2.25;;;9.10;99.90;;;;;;4920024;29;20198;-75
2023/12/30 14:29:34;;;;;;;5.93;1.95;;;9.00;99.90;;;;;;4919642;29;20217;-75
2023/12/30 14:31:59;;;;;;;6.70;2.00;;;8.90;99.90;;;;;;4919885;29;20178;-75
2023/12/30 14:34:27;;;;;;;5.50;1.70;;;8.90;99.90;;;;;;4919940;29;20578;-75
2023/12/30 14:36:53;;;;;;;9.60;2.35;;;8.80;99.90;;;;;;4919546;29;20205;-76
2023/12/30 14:39:19;;;;;;;5.60;1.80;;;8.70;99.90;;;;;;4919857;29;20170;-76
2023/12/30 14:41:46;;;;;;;7.43;2.00;;;8.60;99.90;;;;;;4919594;29;20250;-76
2023/12/30 14:44:11;;;;;;;7.28;2.20;;;8.60;99.90;;;;;;4936853;29;20385;-76
2023/12/30 14:46:37;;;;;;;4.10;2.03;;;8.50;99.90;;;;;;4936510;29;20770;-76
2023/12/30 14:49:02;;;;;;;4.30;1.92;;;8.40;99.90;;;;;;4919892;29;20220;-75
2023/12/30 14:51:28;;;;;;;6.15;2.00;;;8.40;99.90;;;;;;4919773;29;20209;-75
2023/12/30 14:53:53;;;;;;;3.47;1.92;;;8.30;99.90;;;;;;4936624;29;20202;-75
2023/12/30 14:56:19;;;;;;;6.03;2.35;;;8.30;99.90;;;;;;4936372;29;20207;-75
2023/12/30 14:58:45;;;;;;;4.82;1.90;;;8.20;99.90;;;;;;4938045;29;20198;-77
2023/12/30 15:01:11;;;;;;;4.47;1.85;;;8.20;99.90;;;;;;4922948;29;20225;-76
2023/12/30 15:03:36;;;;;;;11.25;5.57;;;8.30;99.90;;;;;;4922571;29;20186;-77
2023/12/30 15:06:02;;;;;;;4.93;3.40;;;8.30;99.90;;;;;;4920691;29;20265;-75
2023/12/30 15:08:29;;;;;;;6.70;4.75;;;8.30;99.90;;;;;;4936742;29;20227;-75
2023/12/30 15:10:55;;;;;;;6.68;2.50;;;8.30;99.90;;;;;;4919241;29;20204;-75
2023/12/30 15:13:20;;;;;;;5.60;2.15;;;8.20;99.90;;;;;;4919131;29;20202;-75
2023/12/30 15:15:46;;;;;;;5.47;2.20;;;8.20;99.90;;;;;;4924372;29;20201;-77
2023/12/30 15:18:12;;;;;;;6.47;2.10;;;8.10;99.90;;;;;;4925140;29;20669;-77
2023/12/30 15:20:38;;;;;;;6.40;1.92;;;8.00;99.90;;;;;;4924565;29;20233;-77
2023/12/30 15:23:04;;;;;;;5.22;2.22;;;8.00;99.90;;;;;;4923511;29;20210;-77
2023/12/30 15:25:31;;;;;;;3.55;1.63;;;8.00;99.90;;;;;;4938817;29;20653;-76
2023/12/30 15:27:57;;;;;;;6.35;2.20;;;7.90;99.90;;;;;;4921703;29;20194;-77
2023/12/30 15:30:22;;;;;;;6.72;1.92;;;7.80;99.90;;;;;;4920293;29;20234;-76
2023/12/30 15:32:49;;;;;;;6.78;2.20;;;7.80;99.90;;;;;;4935951;29;20225;-75
2023/12/30 15:35:15;;;;;;;5.45;2.17;;;7.70;99.90;;;;;;4918988;29;20257;-75
2023/12/30 15:37:40;;;;;;;5.88;2.28;;;7.60;99.90;;;;;;4919153;29;20301;-75
2023/12/30 15:40:07;;;;;;;6.95;2.38;;;7.50;99.90;;;;;;4937851;29;20226;-77
2023/12/30 15:42:33;;;;;;;4.72;2.25;;;7.50;99.90;;;;;;4924825;29;20182;-77
2023/12/30 15:44:59;;;;;;;8.00;2.22;;;7.50;99.90;;;;;;4924669;29;20186;-77
2023/12/30 15:47:25;;;;;;;4.50;1.95;;;7.40;99.90;;;;;;4924761;29;20198;-77
2023/12/30 15:49:51;;;;;;;5.57;2.20;;;7.40;99.90;;;;;;4941742;29;20170;-77
2023/12/30 15:52:17;;;;;;;5.10;1.83;;;7.40;99.90;;;;;;4923366;29;20186;-75
2023/12/30 15:54:43;;;;;;;8.15;2.28;;;7.40;99.90;;;;;;4935733;29;20185;-75
2023/12/30 15:57:08;;;;;;;5.93;2.55;;;7.30;99.90;;;;;;4919395;29;20198;-77
2023/12/30 15:59:34;;;;;;;7.15;2.63;;;7.20;99.90;;;;;;4920905;29;20201;-77
2023/12/30 16:02:00;;;;;;;7.22;2.58;;;7.20;99.90;;;;;;4921484;29;20174;-77
2023/12/30 16:04:25;;;;;;;6.72;1.90;;;7.10;99.90;;;;;;4920903;29;20214;-77
2023/12/30 16:06:51;;;;;;;4.80;2.63;;;7.00;99.90;;;;;;4920666;29;20202;-76
2023/12/30 16:09:17;;;;;;;6.63;3.20;;;7.00;99.90;;;;;;4921147;29;20240;-77
2023/12/30 16:11:43;;;;;;;11.50;5.10;;;6.90;99.90;;;;;;4924711;29;20193;-77
2023/12/30 16:14:09;;;;;;;9.77;3.10;;;6.80;99.90;;;;;;4926066;29;20201;-77
2023/12/30 16:16:45;;;;;;;4.68;2.58;;;6.80;99.90;;;;;;4924638;29;20209;-78
2023/12/30 16:19:15;;;;;;;5.82;2.30;;;6.70;99.90;;;;;;4940387;29;20173;-75
2023/12/30 16:21:41;;;;;;;10.48;2.88;;;6.70;99.90;;;;;;4939109;29;20178;-75
2023/12/30 16:24:07;;;;;;;6.25;2.70;;;6.70;99.90;;;;;;4922987;29;20190;-76
2023/12/30 16:26:33;;;;;;;7.55;3.03;;;6.60;99.90;;;;;;4922314;29;20210;-76
2023/12/30 16:28:59;;;;;;;6.35;2.97;;;6.70;99.90;;;;;;4921785;29;20208;-75
2023/12/30 16:31:25;;;;;;;5.70;2.95;;;6.80;99.90;;;;;;4922116;29;20198;-75
2023/12/30 16:33:51;;;;;;;6.72;3.00;;;6.80;99.90;;;;;;4939267;29;20237;-75
2023/12/30 16:36:20;;;;;;;8.25;2.90;;;6.90;99.90;;;;;;4922659;29;20624;-75
2023/12/30 16:38:46;;;;;;;8.40;3.10;;;7.00;99.90;;;;;;4923532;29;20182;-75
2023/12/30 16:41:12;;;;;;;7.80;3.45;;;7.10;99.90;;;;;;4922734;29;20238;-75
2023/12/30 16:43:37;;;;;;;11.23;4.03;;;7.20;99.90;;;;;;4939011;29;20177;-76
2023/12/30 16:46:04;;;;;;;11.85;4.15;;;7.20;99.90;;;;;;4921637;29;20202;-75
2023/12/30 16:48:29;;;;;;;7.18;3.60;;;7.20;99.90;;;;;;4921755;29;20739;-75
2023/12/30 16:50:55;;;;;;;10.95;3.80;;;7.10;99.90;;;;;;4921873;29;20190;-75
2023/12/30 16:53:23;;;;;;;7.13;3.72;;;7.10;99.90;;;;;;4921812;29;20217;-75
2023/12/30 16:55:50;;;;;;;6.25;3.45;;;7.00;99.90;;;;;;4921375;29;20190;-76
2023/12/30 16:58:16;;;;;;;4.15;3.63;;;7.00;99.90;;;;;;4921729;29;20186;-76
2023/12/30 17:01:32;;;;;;;7.40;4.00;;;7.00;99.90;;;;;;4921368;29;20182;-75
2023/12/30 17:03:57;;;;;;;7.30;4.30;;;7.00;99.90;;;;;;4921406;29;20182;-75
2023/12/30 17:06:23;;;;;;;7.13;3.75;;;6.90;99.90;;;;;;4921838;29;20205;-75
2023/12/30 17:08:49;;;;;;;8.23;4.57;;;6.80;99.90;;;;;;4921197;29;20559;-75
2023/12/30 17:11:17;;;;;;;11.27;4.57;;;6.70;99.90;;;;;;4921304;29;20182;-75
2023/12/30 17:13:42;;;;;;;13.32;5.45;;;6.60;99.90;;;;;;4921056;29;20257;-75
2023/12/30 17:16:08;;;;;;;17.85;9.05;;;6.50;99.90;;;;;;4921198;29;20206;-76
2023/12/30 17:18:34;;;;;;;10.68;5.85;;;6.50;99.90;;;;;;4938188;29;20189;-75
2023/12/30 17:20:59;;;;;;;13.00;6.05;;;6.40;99.90;;;;;;4938325;29;20182;-75
2023/12/30 17:23:25;;;;;;;26.42;13.13;;;6.30;99.90;;;;;;4921073;29;20306;-75
2023/12/30 17:25:50;;;;;;;19.20;7.28;;;6.20;99.90;;;;;;4921905;29;20206;-75
2023/12/30 17:28:16;;;;;;;13.10;7.63;;;6.20;99.90;;;;;;4921043;29;20198;-76
2023/12/30 17:30:43;;;;;;;14.52;7.68;;;6.10;99.90;;;;;;4921878;29;20250;-77
2023/12/30 17:33:13;;;;;;;17.65;7.75;;;6.10;99.90;;;;;;4923245;29;20337;-75
2023/12/30 17:35:39;;;;;;;20.55;7.72;;;6.00;99.90;;;;;;4922834;29;20174;-75
2023/12/30 17:38:10;;;;;;;13.00;6.35;;;6.00;99.90;;;;;;4922011;29;20665;-75
2023/12/30 17:40:35;;;;;;;12.60;4.57;;;6.00;99.90;;;;;;4922860;29;20185;-76
2023/12/30 17:43:01;;;;;;;10.48;3.97;;;5.90;99.90;;;;;;4922905;29;20588;-77
2023/12/30 17:45:26;;;;;;;9.35;3.25;;;5.90;99.90;;;;;;4925771;29;20174;-77
2023/12/30 17:47:53;;;;;;;5.20;3.38;;;5.90;99.90;;;;;;4942629;29;20224;-78
2023/12/30 17:50:18;;;;;;;6.07;2.80;;;5.90;99.90;;;;;;4926956;29;20265;-77
2023/12/30 17:52:44;;;;;;;6.70;3.17;;;5.80;99.90;;;;;;4923983;29;20236;-78
2023/12/30 17:55:10;;;;;;;4.40;3.30;;;5.80;99.90;;;;;;4922653;29;20179;-77
2023/12/30 18:00:39;;;;;;;6.75;3.60;;;5.60;99.90;;;;;;4925773;29;20241;-77
2023/12/30 18:03:09;;;;;;;13.57;6.60;;;5.60;99.90;;;;;;4922716;29;20202;-77
2023/12/30 18:05:35;;;;;;;10.15;6.72;;;5.60;99.90;;;;;;4922890;29;20201;-76
2023/12/30 18:08:01;;;;;;;15.15;8.40;;;5.60;99.90;;;;;;4923869;29;20628;-76
2023/12/30 18:10:26;;;;;;;17.48;10.77;;;5.60;99.90;;;;;;4922534;29;20265;-78
2023/12/30 18:12:53;;;;;;;25.33;13.57;;;5.50;99.90;;;;;;4922452;29;20210;-77
2023/12/30 18:15:21;;;;;;;27.38;12.45;;;5.60;99.90;;;;;;4923740;29;20185;-76
2023/12/30 18:17:47;;;;;;;19.05;8.40;;;5.60;99.90;;;;;;4925014;29;20198;-78
2023/12/30 18:20:14;;;;;;;14.70;7.25;;;5.60;99.90;;;;;;4924431;29;20185;-78
2023/12/30 18:22:42;;;;;;;13.25;5.57;;;5.60;99.90;;;;;;4923014;29;20184;-78
2023/12/30 18:25:07;;;;;;;8.48;5.00;;;5.60;99.90;;;;;;4923899;29;20175;-77
2023/12/30 18:27:36;;;;;;;19.48;13.10;;;5.60;99.90;;;;;;4923963;29;20206;-77
2023/12/30 18:30:02;;;;;;;30.60;17.08;;;5.60;99.90;;;;;;4940338;29;20170;-78
2023/12/30 18:32:28;;;;;;;23.08;11.55;;;5.70;99.90;;;;;;4921919;29;20266;-76
2023/12/30 18:34:53;;;;;;;36.05;21.75;;;5.70;99.90;;;;;;4920657;29;20317;-75
2023/12/30 18:37:19;;;;;;;41.63;22.75;;;5.60;99.90;;;;;;4921316;29;20198;-76
2023/12/30 18:39:45;;;;;;;20.10;10.73;;;5.60;99.90;;;;;;4923303;29;20173;-77
2023/12/30 18:42:10;;;;;;;12.70;6.05;;;5.60;99.90;;;;;;4923538;29;20257;-77
2023/12/30 18:44:37;;;;;;;8.68;5.97;;;5.80;99.90;;;;;;4920011;29;20198;-75
2023/12/30 18:47:03;;;;;;;9.63;5.60;;;5.90;99.90;;;;;;4920284;29;20305;-75
2023/12/30 18:49:29;;;;;;;13.43;7.13;;;6.00;99.90;;;;;;4919902;29;20206;-75
2023/12/30 18:51:55;;;;;;;13.63;7.50;;;6.10;99.90;;;;;;4920318;29;20225;-75
2023/12/30 18:54:21;;;;;;;12.93;5.75;;;6.20;99.90;;;;;;4922609;29;20198;-77
2023/12/30 18:56:46;;;;;;;10.13;4.78;;;6.10;99.90;;;;;;4922780;29;20249;-77
2023/12/30 18:59:12;;;;;;;10.65;6.38;;;6.00;99.90;;;;;;4932669;29;20186;-76
2023/12/30 19:01:42;;;;;;;8.80;5.95;;;6.00;99.90;;;;;;4937426;29;20169;-76
2023/12/30 19:04:09;;;;;;;8.73;5.22;;;6.00;99.90;;;;;;4937756;29;20178;-76
2023/12/30 19:06:35;;;;;;;10.40;5.05;;;5.90;99.90;;;;;;4939543;29;20198;-77
2023/12/30 19:09:01;;;;;;;13.93;7.80;;;5.90;99.90;;;;;;4937532;29;20177;-76
2023/12/30 19:11:27;;;;;;;20.30;10.55;;;5.80;99.90;;;;;;4937644;29;20265;-78
2023/12/30 19:13:52;;;;;;;30.80;18.08;;;5.80;99.90;;;;;;4938367;29;20230;-77
2023/12/30 19:16:18;;;;;;;20.75;12.35;;;5.70;99.90;;;;;;4938418;29;20218;-76
2023/12/30 19:18:45;;;;;;;20.65;13.50;;;5.70;99.90;;;;;;4938782;29;20173;-77
2023/12/30 19:21:11;;;;;;;20.33;16.52;;;5.70;99.90;;;;;;4938793;29;20261;-75
2023/12/30 19:23:37;;;;;;;21.02;14.82;;;5.70;99.90;;;;;;4935892;29;20254;-75
2023/12/30 19:26:03;;;;;;;19.80;15.45;;;5.60;99.90;;;;;;4935984;29;20300;-74
2023/12/30 19:28:28;;;;;;;18.50;13.18;;;5.60;99.90;;;;;;4936660;29;20202;-76
2023/12/30 19:30:54;;;;;;;11.88;7.65;;;5.60;99.90;;;;;;4937368;29;20182;-76
2023/12/30 19:33:19;;;;;;;14.05;8.75;;;5.60;99.90;;;;;;4939447;29;20277;-77
2023/12/30 19:35:45;;;;;;;13.70;8.85;;;5.60;99.90;;;;;;4939245;29;20687;-77
2023/12/30 19:38:11;;;;;;;17.58;9.15;;;5.50;99.90;;;;;;4941022;29;20178;-78
2023/12/30 19:40:42;;;;;;;11.45;7.85;;;5.50;99.90;;;;;;4941973;29;20249;-77
2023/12/30 19:43:08;;;;;;;12.57;8.35;;;5.50;99.90;;;;;;4936041;29;20171;-75
2023/12/30 19:45:35;;;;;;;14.38;8.70;;;5.50;99.90;;;;;;4938689;29;20174;-76
2023/12/30 19:48:00;;;;;;;26.08;17.98;;;5.40;99.90;;;;;;4941641;29;20253;-77
2023/12/30 19:50:28;;;;;;;25.58;13.10;;;5.30;99.90;;;;;;4941160;29;20264;-75
2023/12/30 19:52:54;;;;;;;107.38;53.70;;;5.30;99.90;;;;;;4943700;29;20296;-77
2023/12/30 19:55:21;;;;;;;224.35;106.43;;;5.30;99.90;;;;;;4943992;29;20628;-77
2023/12/30 19:57:47;;;;;;;93.30;53.70;;;5.30;99.90;;;;;;4943171;29;20285;-75
2023/12/30 20:00:13;;;;;;;48.17;31.27;;;5.20;99.90;;;;;;4940605;29;20229;-74
2023/12/30 20:02:42;;;;;;;23.08;17.65;;;5.10;99.90;;;;;;4941224;29;20181;-74
2023/12/30 20:05:12;;;;;;;14.98;10.30;;;5.10;99.90;;;;;;4940903;29;20274;-75
2023/12/30 20:07:40;;;;;;;16.83;9.52;;;5.00;99.90;;;;;;4938561;29;20209;-74
2023/12/30 20:10:14;;;;;;;12.45;7.65;;;5.00;99.90;;;;;;4939649;29;20177;-75
2023/12/30 20:12:40;;;;;;;11.85;6.07;;;4.90;99.90;;;;;;4938135;29;20229;-75
2023/12/30 20:15:07;;;;;;;8.82;5.70;;;4.90;99.90;;;;;;4939211;29;20249;-75
2023/12/30 20:17:33;;;;;;;11.77;5.90;;;4.90;99.90;;;;;;4937987;29;20206;-75
2023/12/30 20:19:59;;;;;;;8.30;5.00;;;4.90;99.90;;;;;;4939265;29;20209;-74
2023/12/30 20:22:27;;;;;;;7.93;4.13;;;4.90;99.90;;;;;;4941961;29;20225;-77
2023/12/30 20:24:56;;;;;;;11.52;4.60;;;4.90;99.90;;;;;;4941891;29;20215;-74
2023/12/30 20:27:21;;;;;;;10.45;4.75;;;4.90;99.90;;;;;;4940276;29;20206;-74
2023/12/30 20:29:48;;;;;;;7.97;4.30;;;4.90;99.90;;;;;;4941365;29;20196;-77
2023/12/30 20:32:17;;;;;;;10.40;4.65;;;4.80;99.90;;;;;;4942479;29;20190;-75
2023/12/30 20:34:42;;;;;;;7.65;4.80;;;4.80;99.90;;;;;;4942543;29;20257;-77
2023/12/30 20:37:08;;;;;;;9.27;4.28;;;4.80;99.90;;;;;;4940594;29;20190;-76
2023/12/30 20:39:34;;;;;;;7.50;4.03;;;4.80;99.90;;;;;;4940252;29;20179;-74
2023/12/30 20:42:00;;;;;;;8.23;4.70;;;4.70;99.90;;;;;;4940360;29;20624;-76
2023/12/30 20:44:25;;;;;;;6.80;4.30;;;4.70;99.90;;;;;;4941904;29;20175;-76
2023/12/30 20:46:51;;;;;;;9.20;4.77;;;4.70;99.90;;;;;;4939376;29;20205;-75
2023/12/30 20:49:20;;;;;;;7.10;4.37;;;4.70;99.90;;;;;;4940334;29;20591;-75
2023/12/30 20:51:48;;;;;;;8.83;4.27;;;4.70;99.90;;;;;;4938742;29;20643;-75
2023/12/30 20:54:13;;;;;;;9.07;4.17;;;4.70;99.90;;;;;;4937491;29;20345;-77
2023/12/30 20:56:39;;;;;;;8.00;4.67;;;4.70;99.90;;;;;;4940672;29;20231;-74
2023/12/30 20:59:05;;;;;;;7.17;4.03;;;4.70;99.90;;;;;;4940632;29;20218;-74
2023/12/30 21:01:30;;;;;;;7.50;4.07;;;4.70;99.90;;;;;;4939868;29;20589;-75
2023/12/30 21:03:56;;;;;;;6.67;3.90;;;4.70;99.90;;;;;;4938346;29;20174;-76
2023/12/30 21:06:22;;;;;;;8.03;4.23;;;4.90;99.90;;;;;;4939930;29;20206;-77
2023/12/30 21:08:50;;;;;;;6.32;3.65;;;5.00;99.90;;;;;;4939685;29;20178;-74
2023/12/30 21:11:19;;;;;;;9.07;3.70;;;5.10;99.90;;;;;;4939394;29;20784;-74
2023/12/30 21:13:47;;;;;;;5.93;3.35;;;5.20;99.90;;;;;;4940125;29;20694;-74
2023/12/30 21:16:17;;;;;;;7.82;3.75;;;5.30;99.90;;;;;;4940060;29;20207;-77
2023/12/30 21:18:42;;;;;;;6.40;3.60;;;5.50;99.90;;;;;;4942104;29;20178;-77
2023/12/30 21:21:08;;;;;;;5.20;3.00;;;5.50;99.90;;;;;;4940554;29;20546;-76
2023/12/30 21:23:34;;;;;;;4.45;3.35;;;5.70;99.90;;;;;;4939138;29;20183;-78
2023/12/30 21:25:59;;;;;;;4.32;3.15;;;5.80;99.90;;;;;;4938345;29;20270;-75
2023/12/30 21:28:30;;;;;;;6.32;3.20;;;5.90;99.90;;;;;;4937770;29;20680;-75
2023/12/30 21:30:57;;;;;;;7.75;3.90;;;5.90;99.90;;;;;;4937178;29;20198;-74
2023/12/30 21:33:23;;;;;;;6.82;3.50;;;6.00;99.90;;;;;;4937259;29;20205;-74
2023/12/30 21:35:48;;;;;;;6.15;3.83;;;6.10;99.90;;;;;;4937990;29;20163;-75
2023/12/30 21:38:14;;;;;;;8.10;3.75;;;6.20;99.90;;;;;;4940489;29;20261;-77
2023/12/30 21:40:40;;;;;;;3.97;3.13;;;6.20;99.90;;;;;;4939329;29;20194;-77
2023/12/30 21:43:05;;;;;;;5.90;2.78;;;6.20;99.90;;;;;;4939429;29;20173;-76
2023/12/30 21:45:31;;;;;;;5.97;2.85;;;6.30;99.90;;;;;;4939180;29;20198;-76
2023/12/30 21:47:57;;;;;;;4.70;3.10;;;6.30;99.90;;;;;;4939048;29;20202;-76
2023/12/30 21:50:25;;;;;;;3.95;3.10;;;6.40;99.90;;;;;;4938977;29;20186;-76
2023/12/30 21:52:52;;;;;;;5.63;2.78;;;6.40;99.90;;;;;;4939207;29;20214;-78
2023/12/30 21:55:19;;;;;;;5.70;3.10;;;6.40;99.90;;;;;;4938971;29;20226;-76
2023/12/30 21:57:45;;;;;;;5.10;3.03;;;6.50;99.90;;;;;;4938883;29;20202;-78
2023/12/30 22:00:11;;;;;;;4.88;3.13;;;6.50;99.90;;;;;;4937459;29;20186;-78
2023/12/30 22:02:37;;;;;;;5.60;3.40;;;6.50;99.90;;;;;;4938304;29;20170;-77
2023/12/30 22:05:04;;;;;;;7.90;2.97;;;6.40;99.90;;;;;;4938042;29;20181;-76
2023/12/30 22:07:29;;;;;;;4.82;2.95;;;6.50;99.90;;;;;;4935230;29;20202;-75
2023/12/30 22:09:55;;;;;;;7.05;2.95;;;6.50;99.90;;;;;;4936390;29;20185;-75
2023/12/30 22:12:21;;;;;;;4.88;2.65;;;6.50;99.90;;;;;;4937126;29;20179;-77
2023/12/30 22:14:46;;;;;;;8.70;3.20;;;6.60;99.90;;;;;;4938967;29;20198;-78
2023/12/30 22:17:12;;;;;;;6.50;3.05;;;6.60;99.90;;;;;;4938368;29;20202;-77
2023/12/30 22:19:37;;;;;;;3.28;2.65;;;6.60;99.90;;;;;;4938384;29;20169;-77
2023/12/30 22:22:03;;;;;;;6.20;3.30;;;6.60;99.90;;;;;;4941039;29;20188;-76
2023/12/30 22:24:29;;;;;;;8.68;3.05;;;6.60;99.90;;;;;;4939912;29;20202;-77
2023/12/30 22:26:55;;;;;;;6.15;2.90;;;6.60;99.90;;;;;;4942775;29;20210;-77
2023/12/30 22:29:20;;;;;;;5.50;3.00;;;6.70;99.90;;;;;;4942922;29;20209;-77
2023/12/30 22:31:46;;;;;;;5.50;2.92;;;6.70;99.90;;;;;;4940141;29;20182;-78
2023/12/30 22:34:12;;;;;;;9.85;2.70;;;6.70;99.90;;;;;;4943042;29;20706;-78
2023/12/30 22:36:38;;;;;;;4.80;2.80;;;6.70;99.90;;;;;;4942596;29;20697;-78
2023/12/30 22:39:03;;;;;;;5.57;2.60;;;6.70;99.90;;;;;;4942405;29;20185;-78
2023/12/30 22:41:29;;;;;;;6.10;3.22;;;6.80;99.90;;;;;;4942834;29;20182;-83
2023/12/30 22:43:55;;;;;;;12.05;6.15;;;6.70;99.90;;;;;;4940060;29;20178;-77
2023/12/30 22:46:20;;;;;;;7.70;3.08;;;6.80;99.90;;;;;;4936810;29;20202;-76
2023/12/30 22:48:46;;;;;;;4.13;2.60;;;6.70;99.90;;;;;;4936900;29;20181;-76
2023/12/30 22:51:12;;;;;;;5.40;3.13;;;6.60;99.90;;;;;;4938062;29;20189;-77
2023/12/30 22:53:39;;;;;;;8.68;4.68;;;6.60;99.90;;;;;;4942648;29;20220;-77
2023/12/30 22:56:05;;;;;;;10.73;7.15;;;6.50;99.90;;;;;;4942153;29;20230;-77
2023/12/30 22:58:31;;;;;;;31.00;17.23;;;6.40;99.90;;;;;;4941416;29;20189;-77
2023/12/30 23:00:56;;;;;;;12.88;5.97;;;6.30;99.90;;;;;;4936715;29;20166;-77
2023/12/30 23:03:23;;;;;;;12.65;6.55;;;6.20;99.90;;;;;;4938565;29;20167;-75
2023/12/30 23:05:48;;;;;;;17.50;9.10;;;6.10;99.90;;;;;;4935327;29;20174;-76
2023/12/30 23:09:02;;;;;;;96.65;40.35;;;6.00;99.90;;;;;;4935698;29;20178;-76
2023/12/30 23:11:37;;;;;;;18.13;8.82;;;6.00;99.90;;;;;;4936170;29;20221;-75
2023/12/30 23:14:06;;;;;;;31.63;15.35;;;6.00;99.90;;;;;;4935506;29;20197;-75
2023/12/30 23:16:32;;;;;;;53.83;23.23;;;6.00;99.90;;;;;;4938256;29;20198;-78
2023/12/30 23:18:58;;;;;;;37.55;16.45;;;6.10;99.90;;;;;;4937186;29;20194;-75
2023/12/30 23:21:43;;;;;;;55.58;28.85;;;6.10;99.90;;;;;;4936371;29;20209;-75
2023/12/30 23:24:08;;;;;;;56.13;43.38;;;6.20;99.90;;;;;;4937674;29;20208;-75
2023/12/30 23:26:34;;;;;;;51.47;44.72;;;6.30;99.90;;;;;;4936028;29;20220;-75
2023/12/30 23:28:59;;;;;;;25.60;20.55;;;6.30;99.90;;;;;;4948673;28;20216;-77
2023/12/30 23:31:25;;;;;;;25.20;22.30;;;6.30;99.90;;;;;;4939184;29;20185;-75
2023/12/30 23:33:51;;;;;;;9.20;6.50;;;6.30;99.90;;;;;;4939469;29;20209;-75
2023/12/30 23:36:26;;;;;;;8.88;6.32;;;6.30;99.90;;;;;;4940057;29;20198;-75
2023/12/30 23:39:05;;;;;;;7.68;5.18;;;6.30;99.90;;;;;;4939594;29;20166;-77
2023/12/30 23:41:30;;;;;;;8.57;5.40;;;6.20;99.90;;;;;;4940378;29;20180;-77
2023/12/30 23:43:56;;;;;;;7.90;3.83;;;6.20;99.90;;;;;;4939814;29;20181;-77
2023/12/30 23:46:22;;;;;;;8.43;4.40;;;6.20;99.90;;;;;;4939879;29;20210;-75
2023/12/30 23:48:47;;;;;;;6.35;4.15;;;6.20;99.90;;;;;;4939059;29;20184;-75
2023/12/30 23:51:13;;;;;;;6.10;3.70;;;6.10;99.90;;;;;;4938301;29;20662;-75
2023/12/30 23:53:38;;;;;;;5.35;3.13;;;6.00;99.90;;;;;;4938830;29;20709;-75
2023/12/30 23:56:39;;;;;;;5.68;3.47;;;6.00;99.90;;;;;;4938685;29;20288;-75
2023/12/30 23:59:05;;;;;;;6.32;3.22;;;6.00;99.90;;;;;;4938280;29;20622;-75
